Time;durP1;ratioP1;P1;durP2;ratioP2;P2;SDS_P1;SDS_P2;PMS_P1;PMS_P2;Temp;Humidity;BMP_temperature;BMP_pressure;BME280_temperature;BME280_humidity;BME280_pressure;Samples;Min_cycle;Max_cycle;Signal;HPM_P1;HPM_P2
2022/06/22 00:02:08;;;;;;;8.85;6.03;;;;;;;23.87;nan;-24479.25;5052339;28;20258;-63
2022/06/22 00:04:46;;;;;;;12.13;5.88;;;;;;;23.90;nan;-24480.09;5051345;28;20661;-63
2022/06/22 00:07:23;;;;;;;10.55;6.00;;;;;;;24.10;nan;-24485.59;5052251;28;20642;-63
2022/06/22 00:09:55;;;;;;;8.85;5.20;;;;;;;24.05;nan;-24484.22;5049307;28;20289;-64
2022/06/22 00:12:26;;;;;;;11.82;5.78;;;;;;;23.91;nan;-24480.34;5051842;28;20240;-63
2022/06/22 00:14:55;;;;;;;10.38;5.35;;;;;;;23.94;nan;-24481.19;5051922;28;20261;-63
2022/06/22 00:17:25;;;;;;;9.32;6.35;;;;;;;23.99;nan;-24482.56;5051624;28;20676;-63
2022/06/22 00:19:59;;;;;;;8.82;5.38;;;;;;;23.93;nan;-24480.91;5051902;28;20277;-63
2022/06/22 00:22:25;;;;;;;8.48;5.30;;;;;;;24.22;nan;-24488.78;5051373;28;20182;-63
2022/06/22 00:25:33;;;;;;;8.90;5.40;;;;;;;24.24;nan;-24489.47;5051688;28;20317;-63
2022/06/22 00:28:23;;;;;;;8.05;5.50;;;;;;;24.08;nan;-24485.06;5037234;28;20213;-63
2022/06/22 00:30:48;;;;;;;9.73;5.53;;;;;;;23.71;nan;-24474.97;5051833;28;20335;-63
2022/06/22 00:33:21;;;;;;;7.88;5.70;;;;;;;23.86;nan;-24478.97;5050754;28;20188;-63
2022/06/22 00:36:15;;;;;;;8.45;4.93;;;;;;;23.97;nan;-24482.00;5048467;28;20183;-64
2022/06/22 00:38:41;;;;;;;9.55;5.07;;;;;;;23.74;nan;-24475.81;5038404;28;20207;-64
2022/06/22 00:41:22;;;;;;;8.52;5.20;;;;;;;23.83;nan;-24478.16;5049906;28;20204;-63
2022/06/22 00:43:48;;;;;;;10.63;6.00;;;;;;;23.76;nan;-24476.34;5047529;28;20300;-63
2022/06/22 00:46:21;;;;;;;7.95;5.28;;;;;;;23.60;nan;-24472.06;5051184;28;20171;-63
2022/06/22 00:48:54;;;;;;;7.95;5.38;;;;;;;23.72;nan;-24475.25;5047678;28;20614;-63
2022/06/22 00:51:30;;;;;;;11.57;6.03;;;;;;;23.47;nan;-24468.50;5050601;28;20385;-63
2022/06/22 00:54:00;;;;;;;7.80;5.20;;;;;;;23.31;nan;-24464.19;5049216;28;20174;-63
2022/06/22 00:56:48;;;;;;;7.90;5.35;;;;;;;23.75;nan;-24476.09;5051178;28;20297;-63
2022/06/22 00:59:37;;;;;;;7.82;5.35;;;;;;;23.79;nan;-24477.19;5043288;28;20174;-62
2022/06/22 01:02:39;;;;;;;9.13;5.88;;;;;;;23.77;nan;-24476.78;5049441;28;20669;-63
2022/06/22 01:05:10;;;;;;;9.75;5.47;;;;;;;23.87;nan;-24479.38;5050339;28;20272;-63
2022/06/22 01:08:03;;;;;;;9.13;5.82;;;;;;;23.90;nan;-24480.09;5051117;28;20308;-63
2022/06/22 01:10:47;;;;;;;7.75;4.93;;;;;;;24.01;nan;-24483.25;5049950;28;20206;-63
2022/06/22 01:13:37;;;;;;;8.07;5.20;;;;;;;23.75;nan;-24476.22;5049350;28;20170;-63
2022/06/22 01:16:08;;;;;;;8.88;5.07;;;;;;;24.10;nan;-24485.59;5049838;28;20186;-63
2022/06/22 01:18:41;;;;;;;10.25;6.05;;;;;;;23.86;nan;-24478.97;5050974;28;20626;-63
2022/06/22 01:21:16;;;;;;;13.27;6.63;;;;;;;23.62;nan;-24472.50;5049099;28;20285;-63
2022/06/22 01:24:00;;;;;;;11.30;6.45;;;;;;;23.65;nan;-24473.31;5050036;28;20688;-63
2022/06/22 01:26:47;;;;;;;12.10;6.30;;;;;;;23.39;nan;-24466.13;5050286;28;20205;-63
2022/06/22 01:29:25;;;;;;;11.55;7.03;;;;;;;23.31;nan;-24464.19;5050236;28;20179;-63
2022/06/22 01:31:50;;;;;;;12.82;7.07;;;;;;;23.59;nan;-24471.66;5048256;28;20578;-63
2022/06/22 01:34:17;;;;;;;11.32;6.97;;;;;;;23.60;nan;-24472.06;5049840;28;20634;-63
2022/06/22 01:36:43;;;;;;;12.18;6.22;;;;;;;23.44;nan;-24467.66;5047194;28;20194;-63
2022/06/22 01:39:11;;;;;;;12.25;6.78;;;;;;;23.35;nan;-24465.31;5049779;28;20193;-63
2022/06/22 01:41:55;;;;;;;12.40;7.13;;;;;;;23.25;nan;-24462.56;5049882;28;20638;-63
2022/06/22 01:44:29;;;;;;;10.60;6.43;;;;;;;23.18;nan;-24460.47;5048953;28;21446;-63
2022/06/22 01:47:12;;;;;;;11.18;6.45;;;;;;;23.05;nan;-24457.03;5049180;28;20182;-63
2022/06/22 01:49:49;;;;;;;11.10;6.00;;;;;;;23.38;nan;-24465.88;5049392;28;20265;-63
2022/06/22 01:52:53;;;;;;;8.30;5.80;;;;;;;23.46;nan;-24468.22;5049587;28;20186;-63
2022/06/22 01:55:29;;;;;;;6.90;5.00;;;;;;;23.16;nan;-24460.06;5041300;28;20218;-63
2022/06/22 01:58:13;;;;;;;9.10;5.68;;;;;;;23.28;nan;-24463.25;5048406;28;20218;-63
2022/06/22 02:00:40;;;;;;;8.48;5.30;;;;;;;23.38;nan;-24466.00;5048908;28;20222;-63
2022/06/22 02:03:24;;;;;;;9.43;5.50;;;;;;;23.32;nan;-24464.34;5049897;28;22245;-63
2022/06/22 02:07:44;;;;;;;10.75;5.75;;;;;;;23.08;nan;-24457.72;5046558;28;20265;-63
2022/06/22 02:08:51;;;;;;;10.75;6.05;;;;;;;23.03;nan;-24456.34;5046181;28;20684;-63
2022/06/22 02:11:21;;;;;;;8.30;5.53;;;;;;;22.78;nan;-24449.56;5049305;28;20205;-63
2022/06/22 02:14:02;;;;;;;8.85;5.97;;;;;;;22.96;nan;-24454.53;5047180;28;20564;-63
2022/06/22 02:17:02;;;;;;;9.57;5.82;;;;;;;23.00;nan;-24455.63;5047091;28;20771;-63
2022/06/22 02:19:29;;;;;;;9.10;5.68;;;;;;;22.86;nan;-24451.91;5012601;28;20252;-63
2022/06/22 02:21:57;;;;;;;8.77;5.93;;;;;;;23.08;nan;-24457.72;5047342;28;20186;-63
2022/06/22 02:24:32;;;;;;;8.43;5.15;;;;;;;23.26;nan;-24462.81;5049125;28;20552;-63
2022/06/22 02:26:57;;;;;;;13.00;5.65;;;;;;;23.28;nan;-24463.25;5049275;28;20229;-63
2022/06/22 02:29:48;;;;;;;8.75;5.72;;;;;;;22.98;nan;-24454.94;5050009;28;20222;-63
2022/06/22 02:32:25;;;;;;;10.90;5.60;;;;;;;23.15;nan;-24459.78;5047838;28;20298;-63
2022/06/22 02:34:55;;;;;;;9.50;5.78;;;;;;;23.35;nan;-24465.31;5046527;28;20263;-63
2022/06/22 02:37:24;;;;;;;9.18;6.22;;;;;;;23.04;nan;-24456.75;5049324;28;20189;-63
2022/06/22 02:40:01;;;;;;;8.35;5.40;;;;;;;23.17;nan;-24460.19;5047821;28;20190;-63
2022/06/22 02:45:13;;;;;;;8.80;5.70;;;;;;;23.21;nan;-24461.44;5048695;28;20261;-63
2022/06/22 02:47:58;;;;;;;8.82;5.45;;;;;;;23.49;nan;-24468.91;5048760;28;20651;-63
2022/06/22 02:50:35;;;;;;;8.90;5.70;;;;;;;23.54;nan;-24470.41;5048295;28;20277;-64
2022/06/22 02:53:06;;;;;;;8.25;5.10;;;;;;;23.63;nan;-24472.78;5048259;28;20174;-64
2022/06/22 02:55:36;;;;;;;12.82;5.30;;;;;;;23.50;nan;-24469.19;5051704;28;20657;-63
2022/06/22 02:58:20;;;;;;;7.85;4.50;;;;;;;23.71;nan;-24474.97;5052836;28;20571;-64
2022/06/22 03:00:46;;;;;;;7.03;4.30;;;;;;;23.62;nan;-24472.50;5049275;28;20222;-65
2022/06/22 03:03:14;;;;;;;8.05;5.05;;;;;;;23.87;nan;-24479.38;5053020;28;20201;-63
2022/06/22 03:05:43;;;;;;;8.90;5.20;;;;;;;24.09;nan;-24485.31;5052446;28;20178;-63
2022/06/22 03:08:11;;;;;;;9.45;5.20;;;;;;;24.09;nan;-24485.31;5052867;28;20190;-64
2022/06/22 03:10:44;;;;;;;8.10;4.88;;;;;;;24.75;nan;-24503.25;5053324;28;20575;-63
2022/06/22 03:13:16;;;;;;;10.77;5.25;;;;;;;25.13;nan;-24513.72;5050376;28;20540;-63
2022/06/22 03:15:42;;;;;;;7.82;4.75;;;;;;;25.17;nan;-24514.81;5051641;28;20183;-63
2022/06/22 03:18:13;;;;;;;7.60;5.00;;;;;;;25.33;nan;-24519.22;5051405;28;20182;-63
2022/06/22 03:20:55;;;;;;;10.00;5.90;;;;;;;25.33;nan;-24519.22;5053028;28;20191;-63
2022/06/22 03:23:55;;;;;;;7.13;5.05;;;;;;;26.34;nan;-24546.59;5052434;28;20182;-63
2022/06/22 03:26:43;;;;;;;7.38;5.22;;;;;;;26.61;nan;-24553.84;5052451;28;20283;-63
2022/06/22 03:29:20;;;;;;;8.43;4.93;;;;;;;27.20;nan;-24569.91;5045789;28;20188;-64
2022/06/22 03:31:53;;;;;;;7.65;4.85;;;;;;;27.43;nan;-24576.06;5046960;28;20415;-64
2022/06/22 03:34:33;;;;;;;10.05;5.03;;;;;;;27.57;nan;-24579.91;5046600;28;20186;-63
2022/06/22 03:37:06;;;;;;;8.93;4.57;;;;;;;27.58;nan;-24580.34;5046029;28;20628;-63
2022/06/22 03:39:35;;;;;;;7.60;4.88;;;;;;;28.01;nan;-24591.84;5045849;28;20886;-63
2022/06/22 03:42:16;;;;;;;7.30;4.90;;;;;;;28.73;nan;-24611.28;5045205;28;20261;-64
2022/06/22 03:45:10;;;;;;;7.55;4.95;;;;;;;28.86;nan;-24614.97;5046484;28;20178;-65
2022/06/22 03:47:48;;;;;;;7.40;4.75;;;;;;;28.74;nan;-24611.53;5037961;28;20191;-64
2022/06/22 03:50:38;;;;;;;9.25;4.90;;;;;;;28.78;nan;-24612.78;5045999;28;20264;-65
2022/06/22 03:53:24;;;;;;;7.75;5.32;;;;;;;29.18;nan;-24623.44;5045280;28;20174;-64
2022/06/22 03:55:51;;;;;;;7.55;4.80;;;;;;;29.40;nan;-24629.44;5045277;28;20187;-65
2022/06/22 03:58:20;;;;;;;9.60;4.72;;;;;;;29.48;nan;-24631.50;5045667;28;20553;-64
2022/06/22 04:00:47;;;;;;;14.02;5.45;;;;;;;29.73;nan;-24638.44;5045336;28;20237;-65
2022/06/22 04:03:15;;;;;;;9.40;4.97;;;;;;;29.97;nan;-24644.72;5045965;28;20182;-64
2022/06/22 04:05:54;;;;;;;8.80;5.13;;;;;;;30.06;nan;-24647.19;5045845;28;20268;-62
2022/06/22 04:08:26;;;;;;;8.45;5.63;;;;;;;30.31;nan;-24654.00;5045227;28;20189;-64
2022/06/22 04:11:01;;;;;;;9.32;5.63;;;;;;;30.51;nan;-24659.31;5045066;28;20202;-65
2022/06/22 04:13:36;;;;;;;8.07;4.97;;;;;;;31.19;nan;-24677.69;5043197;28;20339;-66
2022/06/22 04:16:09;;;;;;;8.20;5.22;;;;;;;31.09;nan;-24674.97;5038379;28;20217;-66
2022/06/22 04:18:42;;;;;;;8.05;5.32;;;;;;;31.66;nan;-24690.34;5049941;28;20612;-64
2022/06/22 04:21:12;;;;;;;8.52;5.03;;;;;;;31.93;nan;-24697.53;5049171;28;20259;-65
2022/06/22 04:23:46;;;;;;;7.78;5.15;;;;;;;32.14;nan;-24703.13;5048648;28;20535;-65
2022/06/22 04:26:30;;;;;;;6.78;5.20;;;;;;;32.78;nan;-24720.34;5049877;28;20346;-65
2022/06/22 04:29:04;;;;;;;7.78;4.75;;;;;;;32.16;nan;-24703.66;5048695;28;20182;-65
2022/06/22 04:31:36;;;;;;;9.80;5.95;;;;;;;32.26;nan;-24706.50;5050571;28;20558;-64
2022/06/22 04:34:13;;;;;;;9.13;4.97;;;;;;;32.47;nan;-24711.94;5048618;28;20225;-64
2022/06/22 04:36:46;;;;;;;8.48;5.18;;;;;;;32.21;nan;-24705.16;5049686;28;20185;-64
2022/06/22 04:39:32;;;;;;;10.73;5.95;;;;;;;31.42;nan;-24683.94;5051267;28;20182;-64
2022/06/22 04:42:00;;;;;;;7.07;5.13;;;;;;;31.42;nan;-24683.81;5049838;28;20243;-65
2022/06/22 04:44:31;;;;;;;9.02;5.32;;;;;;;31.75;nan;-24692.78;5048790;28;20273;-64
2022/06/22 04:47:05;;;;;;;9.45;5.50;;;;;;;31.18;nan;-24677.28;5048967;28;20174;-64
2022/06/22 04:49:35;;;;;;;7.82;5.03;;;;;;;31.01;nan;-24672.78;5049332;28;20170;-65
2022/06/22 04:52:10;;;;;;;8.50;5.50;;;;;;;30.81;nan;-24667.47;5049271;28;20210;-65
2022/06/22 04:54:40;;;;;;;8.18;5.55;;;;;;;30.16;nan;-24649.91;5048676;28;20176;-65
2022/06/22 04:57:17;;;;;;;9.63;5.30;;;;;;;30.93;nan;-24670.75;5049995;28;20251;-65
2022/06/22 04:59:43;;;;;;;9.05;5.28;;;;;;;30.37;nan;-24655.50;5046580;28;20268;-66
2022/06/22 05:02:11;;;;;;;9.07;5.32;;;;;;;29.68;nan;-24637.09;5048966;28;20181;-66
2022/06/22 05:04:41;;;;;;;9.32;5.63;;;;;;;29.77;nan;-24639.41;5050697;28;20209;-62
2022/06/22 05:07:12;;;;;;;10.55;5.15;;;;;;;29.97;nan;-24644.88;5050039;28;20726;-60
2022/06/22 05:09:50;;;;;;;10.40;5.88;;;;;;;30.06;nan;-24647.19;5047725;28;20244;-65
2022/06/22 05:12:20;;;;;;;8.70;5.68;;;;;;;30.55;nan;-24660.53;5049370;28;20182;-66
2022/06/22 05:14:48;;;;;;;6.43;4.60;;;;;;;30.89;nan;-24669.66;5045982;28;20186;-66
2022/06/22 05:17:35;;;;;;;6.55;4.97;;;;;;;30.26;nan;-24652.63;5049730;28;20182;-65
2022/06/22 05:20:05;;;;;;;8.25;5.25;;;;;;;30.54;nan;-24660.13;5049696;28;20562;-65
2022/06/22 05:22:31;;;;;;;8.32;5.30;;;;;;;30.82;nan;-24667.63;5050038;28;20617;-66
2022/06/22 05:25:01;;;;;;;8.35;5.82;;;;;;;31.02;nan;-24673.06;5049326;28;20182;-65
2022/06/22 05:27:34;;;;;;;8.30;5.70;;;;;;;31.07;nan;-24674.56;5046986;28;20584;-63
2022/06/22 05:30:07;;;;;;;6.93;4.95;;;;;;;31.09;nan;-24674.97;5050725;28;20189;-61
2022/06/22 05:32:42;;;;;;;11.18;5.72;;;;;;;29.88;nan;-24642.25;5048176;28;20178;-64
2022/06/22 05:35:13;;;;;;;9.75;5.28;;;;;;;30.34;nan;-24654.69;5048141;28;20186;-63
2022/06/22 05:37:43;;;;;;;6.82;4.90;;;;;;;30.83;nan;-24667.88;5048767;28;20182;-66
2022/06/22 05:40:10;;;;;;;8.50;5.43;;;;;;;30.16;nan;-24650.03;5049376;28;20238;-63
2022/06/22 05:42:37;;;;;;;7.78;5.10;;;;;;;29.72;nan;-24638.19;5049402;28;20178;-64
2022/06/22 05:45:13;;;;;;;9.30;5.30;;;;;;;29.67;nan;-24636.69;5049250;28;20185;-63
2022/06/22 05:47:38;;;;;;;9.48;5.05;;;;;;;29.94;nan;-24643.91;5050134;28;20230;-65
2022/06/22 05:50:19;;;;;;;9.65;5.57;;;;;;;29.97;nan;-24644.72;5048439;28;20288;-65
2022/06/22 05:52:51;;;;;;;7.90;5.25;;;;;;;30.11;nan;-24648.53;5048412;28;20242;-66
2022/06/22 05:55:32;;;;;;;8.25;5.25;;;;;;;29.84;nan;-24641.31;5082415;28;20628;-64
2022/06/22 05:58:13;;;;;;;8.00;5.35;;;;;;;29.66;nan;-24636.53;5046187;28;20246;-66
2022/06/22 06:00:47;;;;;;;9.73;6.13;;;;;;;29.65;nan;-24636.13;5047976;28;20287;-65
2022/06/22 06:03:31;;;;;;;11.10;6.55;;;;;;;29.71;nan;-24637.91;5048865;28;20190;-63
2022/06/22 06:06:19;;;;;;;8.40;5.47;;;;;;;30.05;nan;-24647.03;5047210;28;20186;-66
2022/06/22 06:08:52;;;;;;;9.18;5.57;;;;;;;29.89;nan;-24642.53;5046548;28;20251;-66
2022/06/22 06:11:39;;;;;;;8.52;5.60;;;;;;;29.84;nan;-24641.44;5049808;28;20214;-64
2022/06/22 06:14:12;;;;;;;8.02;5.28;;;;;;;29.90;nan;-24642.81;5046517;28;20697;-63
2022/06/22 06:16:45;;;;;;;9.05;6.00;;;;;;;30.04;nan;-24646.63;5048675;28;20607;-62
2022/06/22 06:19:14;;;;;;;8.57;5.25;;;;;;;29.71;nan;-24637.91;5049137;28;20174;-60
2022/06/22 06:21:40;;;;;;;9.07;5.32;;;;;;;29.93;nan;-24643.63;5049272;28;20205;-66
2022/06/22 06:24:18;;;;;;;15.40;6.10;;;;;;;29.70;nan;-24637.50;5048468;28;20216;-66
2022/06/22 06:29:56;;;;;;;7.53;5.50;;;;;;;29.71;nan;-24637.91;5046636;28;20568;-65
2022/06/22 06:32:40;;;;;;;8.52;5.60;;;;;;;29.60;nan;-24634.91;5051870;28;20570;-63
2022/06/22 06:35:30;;;;;;;8.52;5.50;;;;;;;29.51;nan;-24632.44;5052623;28;21864;-64
2022/06/22 06:38:14;;;;;;;10.18;5.50;;;;;;;29.92;nan;-24643.38;5050189;28;20174;-61
2022/06/22 06:40:50;;;;;;;7.78;5.45;;;;;;;29.75;nan;-24639.00;5052616;28;20192;-62
2022/06/22 06:43:38;;;;;;;10.93;5.75;;;;;;;29.51;nan;-24632.44;5053126;28;20190;-64
2022/06/22 06:46:14;;;;;;;9.30;5.70;;;;;;;29.85;nan;-24641.59;5052171;28;20176;-66
2022/06/22 06:48:43;;;;;;;10.02;5.90;;;;;;;29.50;nan;-24632.19;5052252;28;20186;-64
2022/06/22 06:51:14;;;;;;;8.68;6.03;;;;;;;29.91;nan;-24643.22;5052916;28;20227;-66
2022/06/22 06:53:48;;;;;;;9.18;6.03;;;;;;;29.68;nan;-24637.09;5051780;28;20189;-64
2022/06/22 06:56:28;;;;;;;13.15;6.18;;;;;;;29.94;nan;-24643.91;5052159;28;20190;-64
2022/06/22 06:58:57;;;;;;;9.80;6.05;;;;;;;29.95;nan;-24644.31;5051634;28;20228;-63
2022/06/22 07:01:27;;;;;;;11.07;6.82;;;;;;;30.46;nan;-24658.09;5051019;28;20598;-63
2022/06/22 07:03:59;;;;;;;8.98;5.80;;;;;;;30.54;nan;-24660.25;5053371;28;20181;-61
2022/06/22 07:06:26;;;;;;;12.48;6.57;;;;;;;30.15;nan;-24649.63;5047827;28;20182;-61
2022/06/22 07:08:58;;;;;;;8.98;6.18;;;;;;;30.12;nan;-24648.81;5049970;28;20182;-67
2022/06/22 07:11:45;;;;;;;11.55;6.28;;;;;;;30.64;nan;-24662.84;5051073;28;20206;-62
2022/06/22 07:14:29;;;;;;;9.98;6.15;;;;;;;30.62;nan;-24662.44;5051525;28;20188;-62
2022/06/22 07:17:00;;;;;;;10.80;6.85;;;;;;;30.60;nan;-24661.91;5050229;28;20240;-65
2022/06/22 07:19:25;;;;;;;10.38;6.15;;;;;;;30.70;nan;-24664.50;5054095;28;20185;-62
2022/06/22 07:21:51;;;;;;;11.57;6.47;;;;;;;30.58;nan;-24661.34;5051973;28;20194;-63
2022/06/22 07:24:29;;;;;;;10.30;6.97;;;;;;;30.32;nan;-24654.28;5053401;28;20185;-66
2022/06/22 07:27:20;;;;;;;10.55;6.55;;;;;;;30.59;nan;-24661.63;5052341;28;20273;-62
2022/06/22 07:30:01;;;;;;;12.65;7.30;;;;;;;29.67;nan;-24636.69;5048325;28;20626;-60
2022/06/22 07:33:07;;;;;;;14.85;7.35;;;;;;;30.89;nan;-24669.53;5055991;28;20648;-63
2022/06/22 07:35:43;;;;;;;9.57;6.47;;;;;;;30.66;nan;-24663.41;5048666;28;20234;-63
2022/06/22 07:38:27;;;;;;;11.18;7.30;;;;;;;30.86;nan;-24668.84;5051074;28;20201;-66
2022/06/22 07:43:38;;;;;;;11.48;6.65;;;;;;;30.96;nan;-24671.56;5051287;28;20192;-64
2022/06/22 07:46:06;;;;;;;12.05;7.05;;;;;;;31.26;nan;-24679.59;5050077;28;20571;-67
2022/06/22 07:48:39;;;;;;;11.23;6.90;;;;;;;31.17;nan;-24677.00;5051424;28;20178;-65
2022/06/22 07:51:08;;;;;;;12.52;7.05;;;;;;;31.57;nan;-24687.91;5051525;28;20693;-61
2022/06/22 07:53:41;;;;;;;9.95;6.22;;;;;;;31.32;nan;-24681.22;5051157;28;20213;-62
2022/06/22 07:56:29;;;;;;;10.88;6.40;;;;;;;30.97;nan;-24671.84;5051222;28;20186;-66
2022/06/22 07:59:00;;;;;;;13.70;6.78;;;;;;;31.02;nan;-24673.22;5049807;28;20279;-63
2022/06/22 08:01:31;;;;;;;10.63;6.88;;;;;;;31.09;nan;-24674.97;5049579;28;20221;-67
2022/06/22 08:04:39;;;;;;;10.55;7.07;;;;;;;31.37;nan;-24682.59;5049815;28;20208;-66
2022/06/22 08:07:10;;;;;;;12.23;6.55;;;;;;;31.53;nan;-24686.94;5046015;28;20231;-63
2022/06/22 08:09:46;;;;;;;11.75;6.75;;;;;;;31.83;nan;-24694.81;5052090;28;20193;-64
2022/06/22 08:12:32;;;;;;;11.27;6.50;;;;;;;31.58;nan;-24688.03;5052443;28;20193;-65
2022/06/22 08:15:01;;;;;;;10.45;7.10;;;;;;;31.35;nan;-24682.03;5050081;28;20178;-63
2022/06/22 08:17:42;;;;;;;11.23;6.50;;;;;;;32.00;nan;-24699.44;5051684;28;20693;-62
2022/06/22 08:20:14;;;;;;;13.38;6.50;;;;;;;31.84;nan;-24695.22;5050567;28;20182;-67
2022/06/22 08:22:46;;;;;;;11.00;6.35;;;;;;;31.94;nan;-24697.81;5050450;28;20190;-62
2022/06/22 08:25:15;;;;;;;11.63;6.15;;;;;;;31.96;nan;-24698.34;5050775;28;20205;-64
2022/06/22 08:27:43;;;;;;;13.25;6.57;;;;;;;32.20;nan;-24704.88;5051454;28;20197;-64
2022/06/22 08:30:11;;;;;;;7.28;5.45;;;;;;;32.06;nan;-24700.94;5051001;28;20200;-64
2022/06/22 08:32:43;;;;;;;9.50;6.50;;;;;;;31.98;nan;-24699.03;5051328;28;20737;-62
2022/06/22 08:35:09;;;;;;;14.40;6.20;;;;;;;31.51;nan;-24686.41;5051922;28;20216;-67
2022/06/22 08:37:41;;;;;;;9.23;5.78;;;;;;;31.54;nan;-24687.22;5051476;28;20213;-63
2022/06/22 08:40:39;;;;;;;10.70;5.95;;;;;;;31.97;nan;-24698.63;5051474;28;20604;-62
2022/06/22 08:43:42;;;;;;;11.25;6.03;;;;;;;32.22;nan;-24705.41;5049991;28;20296;-61
2022/06/22 08:46:45;;;;;;;8.13;5.78;;;;;;;32.53;nan;-24713.56;5049637;28;20247;-63
2022/06/22 08:49:49;;;;;;;12.57;5.57;;;;;;;33.06;nan;-24727.81;5050126;28;20170;-60
2022/06/22 08:52:32;;;;;;;9.52;5.43;;;;;;;33.04;nan;-24727.25;5048856;28;20596;-67
2022/06/22 08:55:25;;;;;;;9.63;6.45;;;;;;;33.17;nan;-24730.78;5049706;28;20190;-66
2022/06/22 08:58:25;;;;;;;9.00;5.93;;;;;;;33.11;nan;-24729.28;5047119;28;20272;-61
2022/06/22 09:00:57;;;;;;;10.25;6.10;;;;;;;33.34;nan;-24735.25;5048032;28;20307;-60
2022/06/22 09:03:43;;;;;;;8.48;5.63;;;;;;;33.36;nan;-24735.94;5050191;28;20205;-65
2022/06/22 09:06:27;;;;;;;9.05;6.03;;;;;;;33.31;nan;-24734.56;5050561;28;20197;-64
2022/06/22 09:09:17;;;;;;;9.00;6.03;;;;;;;33.09;nan;-24728.75;5047988;28;20181;-64
2022/06/22 09:11:57;;;;;;;10.02;6.18;;;;;;;33.08;nan;-24728.47;5052588;28;20288;-63
2022/06/22 09:14:32;;;;;;;8.13;5.65;;;;;;;32.86;nan;-24722.66;5049617;28;20657;-62
2022/06/22 09:17:00;;;;;;;8.93;5.70;;;;;;;33.19;nan;-24731.31;5050681;28;20251;-60
2022/06/22 09:19:52;;;;;;;10.18;6.18;;;;;;;33.24;nan;-24732.69;5051131;28;20170;-62
2022/06/22 09:22:59;;;;;;;9.85;6.20;;;;;;;32.98;nan;-24725.78;5035817;28;20205;-64
2022/06/22 09:25:56;;;;;;;8.07;5.68;;;;;;;33.12;nan;-24729.56;5041516;28;20200;-62
2022/06/22 09:28:46;;;;;;;8.45;5.55;;;;;;;32.78;nan;-24720.34;5045685;28;20221;-66
2022/06/22 09:31:18;;;;;;;12.25;6.32;;;;;;;32.81;nan;-24721.28;5048757;28;20712;-64
2022/06/22 09:33:53;;;;;;;12.77;6.90;;;;;;;32.93;nan;-24724.41;5049200;28;20252;-64
2022/06/22 09:36:43;;;;;;;9.18;5.72;;;;;;;32.88;nan;-24723.06;5050129;28;20266;-64
2022/06/22 09:39:17;;;;;;;11.77;6.68;;;;;;;32.56;nan;-24714.38;5049267;28;20193;-65
2022/06/22 09:41:52;;;;;;;9.25;5.90;;;;;;;32.32;nan;-24708.13;5050703;28;20216;-67
2022/06/22 09:44:33;;;;;;;10.50;6.13;;;;;;;32.18;nan;-24704.34;5049189;28;20192;-62
2022/06/22 09:47:41;;;;;;;11.57;6.68;;;;;;;31.94;nan;-24697.94;5048416;28;20637;-63
2022/06/22 09:50:19;;;;;;;9.60;6.60;;;;;;;31.46;nan;-24684.91;5049263;28;20641;-63
2022/06/22 09:53:19;;;;;;;13.68;6.30;;;;;;;31.49;nan;-24685.84;5045587;28;20181;-62
2022/06/22 09:56:23;;;;;;;12.25;6.68;;;;;;;31.65;nan;-24689.94;5049296;28;20182;-64
2022/06/22 09:59:18;;;;;;;8.93;6.05;;;;;;;31.58;nan;-24688.16;5046955;28;20169;-63
2022/06/22 10:02:06;;;;;;;9.32;6.07;;;;;;;31.52;nan;-24686.66;5051166;28;20308;-64
2022/06/22 10:05:16;;;;;;;11.65;6.40;;;;;;;31.47;nan;-24685.31;5048119;28;20182;-63
2022/06/22 10:08:22;;;;;;;9.68;6.28;;;;;;;31.62;nan;-24689.13;5049115;28;20200;-65
2022/06/22 10:10:57;;;;;;;12.13;6.95;;;;;;;31.96;nan;-24698.50;4999559;28;20232;-62
2022/06/22 10:13:40;;;;;;;9.85;6.40;;;;;;;31.93;nan;-24697.53;5048922;28;20212;-64
2022/06/22 10:16:08;;;;;;;10.55;6.72;;;;;;;32.36;nan;-24709.09;5049499;28;20702;-63
2022/06/22 10:18:58;;;;;;;10.23;6.25;;;;;;;32.54;nan;-24713.97;5050943;28;20194;-64
2022/06/22 10:21:58;;;;;;;11.57;6.82;;;;;;;32.32;nan;-24708.00;5049476;28;20201;-65
2022/06/22 10:24:41;;;;;;;9.48;6.22;;;;;;;32.41;nan;-24710.56;5044450;28;20653;-67
2022/06/22 10:27:31;;;;;;;9.90;6.22;;;;;;;32.44;nan;-24711.38;5049956;28;20186;-63
2022/06/22 10:30:02;;;;;;;13.88;7.20;;;;;;;32.48;nan;-24712.34;5047718;28;20180;-64
2022/06/22 10:33:03;;;;;;;9.25;6.50;;;;;;;32.51;nan;-24713.16;5050032;28;20272;-66
2022/06/22 10:35:54;;;;;;;7.93;5.82;;;;;;;32.53;nan;-24713.56;5050279;28;20184;-64
2022/06/22 10:38:32;;;;;;;8.23;6.22;;;;;;;32.20;nan;-24704.88;5041056;28;20248;-66
2022/06/22 10:47:33;;;;;;;9.30;5.63;;;;;;;30.56;nan;-24660.69;5047521;28;20188;-62
2022/06/22 10:50:13;;;;;;;8.50;5.35;;;;;;;30.56;nan;-24660.81;5049015;28;20269;-65
2022/06/22 10:52:48;;;;;;;8.77;5.32;;;;;;;30.54;nan;-24660.25;5054632;28;20243;-64
2022/06/22 10:55:43;;;;;;;9.23;6.13;;;;;;;30.37;nan;-24655.50;5049056;28;20173;-66
2022/06/22 10:58:08;;;;;;;8.13;4.95;;;;;;;30.31;nan;-24654.00;5048576;28;20554;-63
2022/06/22 11:00:49;;;;;;;9.35;5.22;;;;;;;30.10;nan;-24648.28;5049041;28;20348;-65
2022/06/22 11:03:36;;;;;;;8.85;5.43;;;;;;;29.96;nan;-24644.47;5037172;28;20798;-65
2022/06/22 11:06:21;;;;;;;9.35;5.45;;;;;;;29.89;nan;-24642.69;5049827;28;20251;-65
2022/06/22 11:09:17;;;;;;;8.43;5.35;;;;;;;29.80;nan;-24640.22;5049817;28;20201;-66
2022/06/22 11:11:58;;;;;;;9.73;5.72;;;;;;;29.62;nan;-24635.44;5049437;28;20214;-62
2022/06/22 11:14:48;;;;;;;10.35;5.95;;;;;;;29.65;nan;-24636.13;5050218;28;20255;-66
2022/06/22 11:17:13;;;;;;;10.60;6.03;;;;;;;29.59;nan;-24634.50;5049856;28;20182;-63
2022/06/22 11:20:08;;;;;;;13.15;6.00;;;;;;;29.39;nan;-24629.16;5051539;28;20571;-62
2022/06/22 11:22:36;;;;;;;10.15;5.85;;;;;;;28.74;nan;-24611.69;4996333;28;20612;-64
2022/06/22 11:31:25;;;;;;;10.77;5.70;;;;;;;29.37;nan;-24628.75;5051260;28;20221;-64
2022/06/22 11:34:02;;;;;;;11.10;5.43;;;;;;;29.99;nan;-24645.28;5048713;28;20267;-63
2022/06/22 11:36:38;;;;;;;9.95;5.68;;;;;;;30.29;nan;-24653.44;5051362;28;20194;-66
2022/06/22 11:39:32;;;;;;;10.27;5.72;;;;;;;30.74;nan;-24665.44;5052234;28;20254;-66
2022/06/22 11:42:28;;;;;;;8.55;5.28;;;;;;;30.87;nan;-24668.97;5051964;28;20176;-65
2022/06/22 11:48:20;;;;;;;11.20;5.55;;;;;;;31.52;nan;-24686.66;5051046;28;20220;-62
2022/06/22 11:50:51;;;;;;;7.25;4.60;;;;;;;31.69;nan;-24691.16;5052794;28;20224;-65
2022/06/22 11:53:19;;;;;;;8.73;4.40;;;;;;;31.18;nan;-24677.41;5052157;28;20576;-65
2022/06/22 11:55:49;;;;;;;6.47;4.20;;;;;;;31.07;nan;-24674.44;5051504;28;20190;-64
2022/06/22 11:58:55;;;;;;;7.68;3.92;;;;;;;31.20;nan;-24677.97;5051097;28;20178;-64
2022/06/22 12:01:51;;;;;;;7.15;3.92;;;;;;;31.43;nan;-24684.22;5050328;28;20229;-63
2022/06/22 12:04:28;;;;;;;8.20;4.70;;;;;;;31.23;nan;-24678.78;5026150;28;20194;-62
2022/06/22 12:07:31;;;;;;;7.72;4.88;;;;;;;31.55;nan;-24687.34;5052526;28;20193;-62
2022/06/22 12:10:32;;;;;;;9.70;5.05;;;;;;;31.86;nan;-24695.63;4983818;28;20192;-64
2022/06/22 12:13:35;;;;;;;10.93;5.93;;;;;;;31.79;nan;-24693.75;4980692;28;20204;-63
2022/06/22 12:16:23;;;;;;;9.63;5.63;;;;;;;31.91;nan;-24697.13;5048826;28;20206;-65
2022/06/22 12:18:51;;;;;;;9.43;5.85;;;;;;;31.97;nan;-24698.75;5044654;28;20251;-63
2022/06/22 12:21:31;;;;;;;13.65;6.07;;;;;;;32.15;nan;-24703.53;5050669;28;20180;-61
2022/06/22 12:24:38;;;;;;;11.85;5.90;;;;;;;32.75;nan;-24719.53;5050779;28;20182;-66
2022/06/22 12:27:34;;;;;;;8.70;5.90;;;;;;;32.40;nan;-24710.16;5051618;28;20182;-63
2022/06/22 12:30:11;;;;;;;13.13;5.93;;;;;;;32.00;nan;-24699.56;5050939;28;20743;-62
2022/06/22 12:32:48;;;;;;;8.75;4.75;;;;;;;31.99;nan;-24699.16;5056256;28;20184;-65
2022/06/22 12:35:17;;;;;;;11.82;4.95;;;;;;;31.17;nan;-24677.00;5051089;28;20178;-62
2022/06/22 12:37:48;;;;;;;11.52;5.80;;;;;;;30.78;nan;-24666.53;5050366;28;20221;-65
2022/06/22 12:40:23;;;;;;;12.63;5.78;;;;;;;30.39;nan;-24656.03;5052062;28;20189;-63
2022/06/22 12:43:00;;;;;;;10.05;5.88;;;;;;;30.12;nan;-24648.94;5050598;28;20312;-64
2022/06/22 12:45:31;;;;;;;9.75;6.07;;;;;;;29.84;nan;-24641.31;5050315;28;20189;-66
2022/06/22 12:47:59;;;;;;;10.02;5.75;;;;;;;29.59;nan;-24634.50;5049396;28;20599;-65
2022/06/22 12:50:42;;;;;;;14.85;6.55;;;;;;;29.37;nan;-24628.63;5051512;28;20198;-62
2022/06/22 12:53:24;;;;;;;11.80;6.43;;;;;;;29.07;nan;-24620.44;5051156;28;20257;-63
2022/06/22 12:56:02;;;;;;;11.00;5.75;;;;;;;29.18;nan;-24623.56;5050276;28;20193;-64
2022/06/22 12:58:33;;;;;;;11.43;6.55;;;;;;;28.66;nan;-24609.34;5049394;28;20170;-64